createdAt,value
2017-11-13T00:00:08.531Z,7.97
2017-11-13T00:00:49.023Z,7.93
2017-11-13T00:01:29.516Z,7.93
2017-11-13T00:02:10.002Z,7.97
2017-11-13T00:02:50.486Z,7.89
2017-11-13T00:03:30.973Z,7.92
2017-11-13T00:04:11.458Z,7.9
2017-11-13T00:04:51.945Z,7.89
2017-11-13T00:05:32.433Z,7.92
2017-11-13T00:06:12.929Z,7.89
2017-11-13T00:06:53.419Z,7.86
2017-11-13T00:07:33.909Z,7.9
2017-11-13T00:08:14.412Z,7.85
2017-11-13T00:08:54.893Z,7.95
2017-11-13T00:09:35.385Z,7.9
2017-11-13T00:10:15.896Z,7.85
2017-11-13T00:10:56.372Z,7.95
2017-11-13T00:11:36.844Z,7.93
2017-11-13T00:12:17.322Z,7.87
2017-11-13T00:12:57.817Z,7.93
2017-11-13T00:13:38.306Z,7.95
2017-11-13T00:14:18.799Z,7.93
2017-11-13T00:14:59.302Z,8.01
2017-11-13T00:15:39.788Z,7.98
2017-11-13T00:16:20.278Z,8
2017-11-13T00:17:00.776Z,7.95
2017-11-13T00:17:41.265Z,8.01
2017-11-13T00:18:21.757Z,7.95
2017-11-13T00:19:02.251Z,7.89
2017-11-13T00:19:42.738Z,8.04
2017-11-13T00:20:23.220Z,7.93
2017-11-13T00:21:03.712Z,8.08
2017-11-13T00:21:44.214Z,8.04
2017-11-13T00:22:24.706Z,8.04
2017-11-13T00:23:05.210Z,8.08
2017-11-13T00:23:45.708Z,7.97
2017-11-13T00:24:26.174Z,7.98
2017-11-13T00:25:06.659Z,7.87
2017-11-13T00:25:47.145Z,7.89
2017-11-13T00:26:27.632Z,8.05
2017-11-13T00:27:08.124Z,7.92
2017-11-13T00:27:48.628Z,7.92
2017-11-13T00:28:29.101Z,7.92
2017-11-13T00:29:09.598Z,7.97
2017-11-13T00:29:50.097Z,8.04
2017-11-13T00:30:30.580Z,7.95
2017-11-13T00:31:11.074Z,7.97
2017-11-13T00:31:51.579Z,7.87
2017-11-13T00:32:32.059Z,7.9
2017-11-13T00:33:12.553Z,7.97
2017-11-13T00:33:53.053Z,7.93
2017-11-13T00:34:33.536Z,8.05
2017-11-13T00:35:14.033Z,8.04
2017-11-13T00:35:54.517Z,7.9
2017-11-13T00:36:35.013Z,7.87
2017-11-13T00:37:15.510Z,7.89
2017-11-13T00:37:56.005Z,7.77
2017-11-13T00:38:36.485Z,7.8
2017-11-13T00:39:16.966Z,7.85
2017-11-13T00:39:57.457Z,7.85
2017-11-13T00:40:37.940Z,7.97
2017-11-13T00:41:18.431Z,7.9
2017-11-13T00:41:58.922Z,7.97
2017-11-13T00:42:39.413Z,7.89
2017-11-13T00:43:19.903Z,7.87
2017-11-13T00:44:00.401Z,7.9
2017-11-13T00:44:40.895Z,7.82
2017-11-13T00:45:21.369Z,8.04
2017-11-13T00:46:01.856Z,7.97
2017-11-13T00:46:42.347Z,7.93
2017-11-13T00:47:22.834Z,8.07
2017-11-13T00:48:03.329Z,8.08
2017-11-13T00:48:43.808Z,7.85
2017-11-13T00:49:24.312Z,7.9
2017-11-13T00:50:04.794Z,8
2017-11-13T00:50:45.283Z,8.02
2017-11-13T00:51:25.792Z,7.98
2017-11-13T00:52:06.270Z,8.01
2017-11-13T00:52:46.765Z,7.97
2017-11-13T00:53:27.264Z,8
2017-11-13T00:54:07.744Z,8.05
2017-11-13T00:54:48.230Z,8.04
2017-11-13T00:55:28.722Z,8.12
2017-11-13T00:56:09.224Z,7.98
2017-11-13T00:56:49.715Z,7.92
2017-11-13T00:57:30.206Z,8.02
2017-11-13T00:58:10.701Z,8.07
2017-11-13T00:58:51.185Z,7.93
2017-11-13T00:59:31.674Z,8.01
2017-11-13T01:00:12.166Z,7.95
2017-11-13T01:00:52.649Z,8.01
2017-11-13T01:01:33.139Z,7.98
2017-11-13T01:02:13.631Z,8.01
2017-11-13T01:02:54.119Z,8.01
2017-11-13T01:03:34.611Z,8.1
2017-11-13T01:04:15.101Z,8.07
2017-11-13T01:04:55.592Z,8.01
2017-11-13T01:05:36.083Z,8.07
2017-11-13T01:06:16.586Z,7.95
2017-11-13T01:06:57.060Z,8.1
2017-11-13T01:07:37.565Z,7.98
2017-11-13T01:08:18.062Z,8
2017-11-13T01:08:58.545Z,7.98
2017-11-13T01:09:39.028Z,8.04
2017-11-13T01:10:19.512Z,7.97
2017-11-13T01:11:00.022Z,7.9
2017-11-13T01:11:40.480Z,7.97
2017-11-13T01:12:20.974Z,8.04
2017-11-13T01:13:01.478Z,7.97
2017-11-13T01:13:41.956Z,7.97
2017-11-13T01:14:22.450Z,7.87
2017-11-13T01:15:02.947Z,7.92
2017-11-13T01:15:43.438Z,8
2017-11-13T01:16:23.935Z,8.08
2017-11-13T01:17:04.436Z,7.97
2017-11-13T01:17:44.914Z,7.93
2017-11-13T01:18:25.404Z,8.01
2017-11-13T01:19:05.905Z,7.95
2017-11-13T01:19:46.390Z,7.95
2017-11-13T01:20:26.887Z,7.87
2017-11-13T01:21:07.365Z,7.93
2017-11-13T01:21:47.870Z,7.98
2017-11-13T01:22:28.358Z,8.02
2017-11-13T01:23:08.865Z,7.98
2017-11-13T01:23:49.342Z,7.97
2017-11-13T01:24:29.826Z,8.07
2017-11-13T01:25:10.312Z,8.02
2017-11-13T01:25:50.811Z,8
2017-11-13T01:26:31.301Z,8.02
2017-11-13T01:27:11.796Z,8.02
2017-11-13T01:27:52.290Z,7.93
2017-11-13T01:28:32.769Z,7.97
2017-11-13T01:29:13.260Z,7.89
2017-11-13T01:29:53.750Z,8.01
2017-11-13T01:30:34.230Z,7.97
2017-11-13T01:31:14.725Z,7.95
2017-11-13T01:31:55.215Z,7.89
2017-11-13T01:32:35.707Z,8.04
2017-11-13T01:33:16.182Z,7.95
2017-11-13T01:33:56.671Z,7.95
2017-11-13T01:34:37.156Z,8.18
2017-11-13T01:35:17.644Z,8.04
2017-11-13T01:35:58.139Z,8.08
2017-11-13T01:36:38.639Z,8.07
2017-11-13T01:37:19.122Z,8.07
2017-11-13T01:37:59.615Z,8.04
2017-11-13T01:38:40.112Z,7.93
2017-11-13T01:39:20.600Z,7.97
2017-11-13T01:40:01.092Z,7.89
2017-11-13T01:40:41.597Z,7.93
2017-11-13T01:41:22.074Z,7.93
2017-11-13T01:42:02.570Z,7.93
2017-11-13T01:42:43.068Z,7.83
2017-11-13T01:43:23.551Z,7.9
2017-11-13T01:44:04.046Z,7.9
2017-11-13T01:44:44.547Z,7.93
2017-11-13T01:45:25.030Z,7.83
2017-11-13T01:46:05.514Z,7.93
2017-11-13T01:46:46.004Z,7.83
2017-11-13T01:47:26.503Z,7.97
2017-11-13T01:48:06.999Z,8.04
2017-11-13T01:48:47.472Z,7.95
2017-11-13T01:49:27.959Z,7.83
2017-11-13T01:50:08.445Z,7.92
2017-11-13T01:50:48.938Z,7.93
2017-11-13T01:51:29.432Z,7.85
2017-11-13T01:52:09.925Z,7.92
2017-11-13T01:52:50.414Z,7.98
2017-11-13T01:53:30.909Z,7.97
2017-11-13T01:54:11.400Z,7.98
2017-11-13T01:54:51.896Z,7.97
2017-11-13T01:55:32.386Z,8.05
2017-11-13T01:56:12.876Z,8.01
2017-11-13T01:56:53.369Z,7.93
2017-11-13T01:57:33.870Z,7.97
2017-11-13T01:58:14.355Z,7.95
2017-11-13T01:58:54.850Z,7.9
2017-11-13T01:59:35.354Z,8.04
2017-11-13T02:00:15.825Z,8
2017-11-13T02:00:56.323Z,7.9
2017-11-13T02:01:36.826Z,7.95
2017-11-13T02:02:17.309Z,7.87
2017-11-13T02:02:57.810Z,7.97
2017-11-13T02:03:38.301Z,7.93
2017-11-13T02:04:18.783Z,8.05
2017-11-13T02:04:59.270Z,7.98
2017-11-13T02:05:39.755Z,7.97
2017-11-13T02:06:20.258Z,7.98
2017-11-13T02:07:00.729Z,7.92
2017-11-13T02:07:41.222Z,7.98
2017-11-13T02:08:21.714Z,8
2017-11-13T02:09:02.202Z,7.93
2017-11-13T02:09:42.692Z,8.01
2017-11-13T02:10:23.194Z,8.02
2017-11-13T02:11:03.664Z,7.98
2017-11-13T02:11:44.166Z,7.97
2017-11-13T02:12:24.666Z,7.92
2017-11-13T02:13:05.150Z,7.95
2017-11-13T02:13:45.634Z,7.95
2017-11-13T02:14:26.120Z,7.9
2017-11-13T02:15:06.601Z,7.97
2017-11-13T02:15:47.093Z,7.95
2017-11-13T02:16:27.586Z,7.95
2017-11-13T02:17:08.075Z,7.97
2017-11-13T02:17:48.567Z,7.87
2017-11-13T02:18:29.062Z,7.97
2017-11-13T02:19:09.534Z,7.93
2017-11-13T02:19:50.029Z,7.95
2017-11-13T02:20:30.517Z,7.95
2017-11-13T02:21:11.009Z,8.07
2017-11-13T02:21:51.523Z,8.05
2017-11-13T02:22:32.016Z,8.08
2017-11-13T02:23:12.506Z,7.93
2017-11-13T02:23:52.995Z,8.04
2017-11-13T02:24:33.486Z,8.11
2017-11-13T02:25:13.991Z,8.15
2017-11-13T02:25:54.472Z,8.07
2017-11-13T02:26:34.954Z,7.95
2017-11-13T02:27:15.447Z,7.97
2017-11-13T02:27:55.947Z,8.15
2017-11-13T02:28:36.443Z,7.98
2017-11-13T02:29:16.942Z,8.05
2017-11-13T02:29:57.422Z,8.02
2017-11-13T02:30:37.910Z,7.95
2017-11-13T02:31:18.395Z,8.05
2017-11-13T02:31:58.887Z,8
2017-11-13T02:32:39.381Z,8.04
2017-11-13T02:33:19.868Z,8.04
2017-11-13T02:34:00.363Z,8.04
2017-11-13T02:34:40.850Z,8.18
2017-11-13T02:35:21.324Z,8.11
2017-11-13T02:36:01.810Z,8.15
2017-11-13T02:36:42.298Z,8.2
2017-11-13T02:37:22.796Z,8.15
2017-11-13T02:38:03.285Z,8.18
2017-11-13T02:38:43.778Z,8.05
2017-11-13T02:39:24.262Z,8.2
2017-11-13T02:40:04.750Z,8.04
2017-11-13T02:40:45.233Z,8.04
2017-11-13T02:41:25.729Z,8.11
2017-11-13T02:42:06.224Z,8.15
2017-11-13T02:42:46.726Z,8.11
2017-11-13T02:43:27.208Z,8.12
2017-11-13T02:44:07.689Z,8.11
2017-11-13T02:44:48.183Z,8.02
2017-11-13T02:45:28.674Z,8.04
2017-11-13T02:46:09.166Z,8.07
2017-11-13T02:46:49.655Z,8.11
2017-11-13T02:47:30.152Z,8.11
2017-11-13T02:48:10.639Z,8.19
2017-11-13T02:48:51.120Z,8.12
2017-11-13T02:49:31.612Z,8.07
2017-11-13T02:50:12.097Z,8.11
2017-11-13T02:50:52.590Z,8.11
2017-11-13T02:51:33.091Z,8.2
2017-11-13T02:52:13.573Z,8.08
2017-11-13T02:52:54.065Z,8.23
2017-11-13T02:53:34.569Z,8.22
2017-11-13T02:54:15.051Z,8.23
2017-11-13T02:54:55.545Z,8.16
2017-11-13T02:55:36.038Z,8.15
2017-11-13T02:56:16.526Z,8.11
2017-11-13T02:56:57.015Z,8.2
2017-11-13T02:57:37.502Z,8.26
2017-11-13T02:58:18.003Z,8.23
2017-11-13T02:58:58.488Z,8.23
2017-11-13T02:59:38.976Z,8.18
2017-11-13T03:00:19.471Z,8.11
2017-11-13T03:00:59.996Z,8.05
2017-11-13T03:01:40.457Z,8.15
2017-11-13T03:02:20.948Z,8.12
2017-11-13T03:03:01.436Z,8.11
2017-11-13T03:03:41.927Z,8.11
2017-11-13T03:04:22.410Z,8.29
2017-11-13T03:05:02.902Z,8.18
2017-11-13T03:05:43.391Z,8.19
2017-11-13T03:06:23.887Z,8.28
2017-11-13T03:07:04.375Z,8.11
2017-11-13T03:07:44.866Z,8.16
2017-11-13T03:08:25.369Z,8.22
2017-11-13T03:09:05.853Z,8.15
2017-11-13T03:09:46.350Z,8.11
2017-11-13T03:10:26.843Z,8.23
2017-11-13T03:11:07.325Z,8.2
2017-11-13T03:11:47.808Z,8.18
2017-11-13T03:12:28.297Z,8.12
2017-11-13T03:13:08.805Z,8.19
2017-11-13T03:13:49.286Z,8.22
2017-11-13T03:14:29.780Z,8.22
2017-11-13T03:15:10.255Z,8.18
2017-11-13T03:15:50.735Z,8.11
2017-11-13T03:16:31.233Z,8.16
2017-11-13T03:17:11.733Z,8.16
2017-11-13T03:17:52.210Z,8.1
2017-11-13T03:18:32.692Z,8.1
2017-11-13T03:19:13.174Z,8.18
2017-11-13T03:19:53.664Z,8.1
2017-11-13T03:20:34.158Z,8.08
2017-11-13T03:21:14.611Z,8.07
2017-11-13T03:21:55.089Z,8.15
2017-11-13T03:22:35.579Z,8.15
2017-11-13T03:23:16.074Z,8.04
2017-11-13T03:23:56.568Z,8.04
2017-11-13T03:24:37.061Z,8.22
2017-11-13T03:25:17.556Z,8.08
2017-11-13T03:25:58.040Z,8.07
2017-11-13T03:26:38.534Z,8.02
2017-11-13T03:27:19.029Z,8.16
2017-11-13T03:27:59.519Z,8.08
2017-11-13T03:28:40.009Z,8.15
2017-11-13T03:29:20.478Z,8
2017-11-13T03:30:00.980Z,8.02
2017-11-13T03:30:41.466Z,7.95
2017-11-13T03:31:21.944Z,8.07
2017-11-13T03:32:02.436Z,7.97
2017-11-13T03:32:42.916Z,8.04
2017-11-13T03:33:23.405Z,8.05
2017-11-13T03:34:03.903Z,8
2017-11-13T03:34:44.389Z,8
2017-11-13T03:35:24.882Z,7.93
2017-11-13T03:36:05.377Z,8
2017-11-13T03:36:45.866Z,8
2017-11-13T03:37:26.337Z,8
2017-11-13T03:38:06.821Z,8
2017-11-13T03:38:47.318Z,8
2017-11-13T03:39:27.803Z,7.85
2017-11-13T03:40:08.298Z,7.98
2017-11-13T03:40:48.779Z,8.02
2017-11-13T03:41:29.269Z,8.02
2017-11-13T03:42:09.757Z,8.07
2017-11-13T03:42:50.247Z,8.08
2017-11-13T03:43:30.744Z,8.15
2017-11-13T03:44:11.249Z,8.02
2017-11-13T03:44:51.724Z,8
2017-11-13T03:45:32.208Z,8.1
2017-11-13T03:46:12.694Z,8.04
2017-11-13T03:46:53.195Z,8.05
2017-11-13T03:47:33.678Z,8.08
2017-11-13T03:48:14.168Z,7.92
2017-11-13T03:48:54.664Z,7.97
2017-11-13T03:49:35.166Z,7.98
2017-11-13T03:50:15.643Z,7.97
2017-11-13T03:50:56.136Z,8.05
2017-11-13T03:51:36.640Z,7.98
2017-11-13T03:52:17.123Z,8
2017-11-13T03:52:57.617Z,7.93
2017-11-13T03:53:38.116Z,8.11
2017-11-13T03:54:18.603Z,8.04
2017-11-13T03:54:59.090Z,7.97
2017-11-13T03:55:39.599Z,8.04
2017-11-13T03:56:20.079Z,8.07
2017-11-13T03:57:00.585Z,8.12
2017-11-13T03:57:41.072Z,8.04
2017-11-13T03:58:21.554Z,8.07
2017-11-13T03:59:02.035Z,8.04
2017-11-13T03:59:42.523Z,7.93
2017-11-13T04:00:23.016Z,8.12
2017-11-13T04:01:03.507Z,8.12
2017-11-13T04:01:43.986Z,8.08
2017-11-13T04:02:24.489Z,8.04
2017-11-13T04:03:04.974Z,8.02
2017-11-13T04:03:45.495Z,8.07
2017-11-13T04:04:25.963Z,8.07
2017-11-13T04:05:06.451Z,8.05
2017-11-13T04:05:46.938Z,8.04
2017-11-13T04:06:27.435Z,8.07
2017-11-13T04:07:07.920Z,8.07
2017-11-13T04:07:48.423Z,8.1
2017-11-13T04:08:28.907Z,8.12
2017-11-13T04:09:09.397Z,8.11
2017-11-13T04:09:49.890Z,8.15
2017-11-13T04:10:30.385Z,8.11
2017-11-13T04:11:10.876Z,8
2017-11-13T04:11:51.372Z,8.1
2017-11-13T04:12:31.870Z,8.07
2017-11-13T04:13:12.349Z,7.98
2017-11-13T04:13:52.836Z,8.19
2017-11-13T04:14:33.325Z,7.98
2017-11-13T04:15:13.800Z,8
2017-11-13T04:15:54.289Z,8.04
2017-11-13T04:16:34.782Z,8.1
2017-11-13T04:17:15.274Z,8.1
2017-11-13T04:17:55.773Z,8.18
2017-11-13T04:18:36.239Z,8.2
2017-11-13T04:19:16.732Z,8.22
2017-11-13T04:19:57.199Z,8.2
2017-11-13T04:20:37.697Z,8.22
2017-11-13T04:21:18.183Z,8.11
2017-11-13T04:21:58.666Z,8.2
2017-11-13T04:22:39.154Z,8.16
2017-11-13T04:23:19.637Z,8.2
2017-11-13T04:24:00.130Z,8.22
2017-11-13T04:24:40.628Z,8.43
2017-11-13T04:25:21.096Z,8.23
2017-11-13T04:26:01.601Z,8.2
2017-11-13T04:26:42.071Z,8.23
2017-11-13T04:27:22.582Z,8.19
2017-11-13T04:28:03.049Z,8.18
2017-11-13T04:28:43.530Z,8.2
2017-11-13T04:29:24.018Z,8.25
2017-11-13T04:30:04.518Z,7.9
2017-11-13T04:30:45.006Z,8.15
2017-11-13T04:31:25.499Z,7.97
2017-11-13T04:32:06.004Z,7.98
2017-11-13T04:32:46.505Z,8.08
2017-11-13T04:33:27.001Z,8.12
2017-11-13T04:34:07.476Z,8.18
2017-11-13T04:34:47.959Z,8.1
2017-11-13T04:35:28.449Z,8.15
2017-11-13T04:36:08.952Z,8.2
2017-11-13T04:36:49.433Z,8.25
2017-11-13T04:37:29.925Z,8.2
2017-11-13T04:38:10.405Z,8.07
2017-11-13T04:38:50.892Z,8
2017-11-13T04:39:31.389Z,8.16
2017-11-13T04:40:11.880Z,8.01
2017-11-13T04:40:52.369Z,8.05
2017-11-13T04:41:32.864Z,8.05
2017-11-13T04:42:13.356Z,8.15
2017-11-13T04:42:53.846Z,8.16
2017-11-13T04:43:34.339Z,8.19
2017-11-13T04:44:14.834Z,8.18
2017-11-13T04:44:55.321Z,8.23
2017-11-13T04:45:35.807Z,8.25
2017-11-13T04:46:16.292Z,8.19
2017-11-13T04:46:56.787Z,8.11
2017-11-13T04:47:37.276Z,8.12
2017-11-13T04:48:17.762Z,8.2
2017-11-13T04:48:58.254Z,8.12
2017-11-13T04:49:38.735Z,8.2
2017-11-13T04:50:19.229Z,8.1
2017-11-13T04:50:59.738Z,8
2017-11-13T04:51:40.210Z,8.07
2017-11-13T04:52:20.694Z,8.02
2017-11-13T04:53:01.188Z,8
2017-11-13T04:53:41.670Z,8
2017-11-13T04:54:22.155Z,7.97
2017-11-13T04:55:02.632Z,8.1
2017-11-13T04:55:43.121Z,7.93
2017-11-13T04:56:23.611Z,8.05
2017-11-13T04:57:04.107Z,7.97
2017-11-13T04:57:44.599Z,8.04
2017-11-13T04:58:25.101Z,7.93
2017-11-13T04:59:05.599Z,7.9
2017-11-13T04:59:46.091Z,7.92
2017-11-13T05:00:26.571Z,8
2017-11-13T05:01:07.059Z,7.92
2017-11-13T05:01:47.541Z,8.01
2017-11-13T05:02:28.050Z,7.93
2017-11-13T05:03:08.516Z,7.97
2017-11-13T05:03:49.008Z,7.93
2017-11-13T05:04:29.509Z,7.95
2017-11-13T05:05:09.992Z,8
2017-11-13T05:05:50.474Z,8.02
2017-11-13T05:06:30.952Z,7.95
2017-11-13T05:07:11.439Z,7.98
2017-11-13T05:07:51.932Z,8
2017-11-13T05:08:32.421Z,8.02
2017-11-13T05:09:12.915Z,8
2017-11-13T05:09:53.401Z,8.22
2017-11-13T05:10:33.884Z,8.11
2017-11-13T05:11:14.373Z,8.05
2017-11-13T05:11:54.871Z,8.15
2017-11-13T05:12:35.352Z,8.16
2017-11-13T05:13:15.834Z,8.15
2017-11-13T05:13:56.334Z,8.16
2017-11-13T05:14:36.815Z,8.18
2017-11-13T05:15:17.299Z,8.16
2017-11-13T05:15:57.790Z,8.22
2017-11-13T05:16:38.271Z,8.28
2017-11-13T05:17:18.764Z,8.2
2017-11-13T05:17:59.254Z,8.11
2017-11-13T05:18:39.745Z,8.25
2017-11-13T05:19:20.231Z,8.16
2017-11-13T05:20:00.725Z,8.23
2017-11-13T05:20:41.218Z,8.25
2017-11-13T05:21:21.708Z,8.15
2017-11-13T05:22:02.204Z,8.12
2017-11-13T05:22:42.696Z,8.15
2017-11-13T05:23:23.184Z,8.2
2017-11-13T05:24:03.682Z,8.12
2017-11-13T05:24:44.171Z,8.23
2017-11-13T05:25:24.668Z,8.2
2017-11-13T05:26:05.160Z,8.18
2017-11-13T05:26:45.655Z,8.22
2017-11-13T05:27:26.141Z,8.33
2017-11-13T05:28:06.635Z,8.23
2017-11-13T05:28:47.128Z,8.23
2017-11-13T05:29:27.616Z,8.2
2017-11-13T05:30:08.108Z,8.26
2017-11-13T05:30:48.595Z,8.19
2017-11-13T05:31:29.089Z,8.23
2017-11-13T05:32:09.577Z,8.33
2017-11-13T05:32:50.089Z,8.23
2017-11-13T05:33:30.559Z,8.23
2017-11-13T05:34:11.043Z,8.25
2017-11-13T05:34:51.529Z,8.11
2017-11-13T05:35:32.079Z,8.16
2017-11-13T05:36:12.583Z,8.22
2017-11-13T05:36:53.069Z,8.16
2017-11-13T05:37:33.564Z,8.22
2017-11-13T05:38:14.061Z,8.18
2017-11-13T05:38:54.543Z,8.15
2017-11-13T05:39:35.026Z,8.19
2017-11-13T05:40:15.515Z,8.19
2017-11-13T05:40:56.000Z,8.15
2017-11-13T05:41:36.489Z,8.15
2017-11-13T05:42:16.977Z,8.22
2017-11-13T05:42:57.472Z,8.23
2017-11-13T05:43:37.959Z,8.2
2017-11-13T05:44:18.445Z,8.18
2017-11-13T05:44:58.935Z,8.22
2017-11-13T05:45:39.423Z,8.16
2017-11-13T05:46:19.909Z,8.26
2017-11-13T05:47:00.400Z,8.23
2017-11-13T05:47:40.887Z,8.18
2017-11-13T05:48:21.384Z,8.12
2017-11-13T05:49:01.868Z,8.26
2017-11-13T05:49:42.363Z,8.16
2017-11-13T05:50:22.843Z,8.04
2017-11-13T05:51:03.324Z,8.15
2017-11-13T05:51:43.805Z,8.15
2017-11-13T05:52:24.323Z,8.2
2017-11-13T05:53:04.784Z,8.16
2017-11-13T05:53:45.289Z,8.15
2017-11-13T05:54:25.768Z,8.11
2017-11-13T05:55:06.251Z,8.2
2017-11-13T05:55:47.357Z,8.26
2017-11-13T05:56:27.197Z,8.29
2017-11-13T05:57:07.672Z,8.23
2017-11-13T05:57:48.162Z,8.2
2017-11-13T05:58:28.653Z,8.2
2017-11-13T05:59:09.128Z,8.19
2017-11-13T05:59:49.618Z,8.15
2017-11-13T06:00:30.103Z,8.25
2017-11-13T06:01:10.592Z,8.3
2017-11-13T06:01:51.102Z,8.26
2017-11-13T06:02:31.575Z,8.2
2017-11-13T06:03:12.063Z,8.16
2017-11-13T06:03:52.561Z,8.19
2017-11-13T06:04:33.051Z,8.26
2017-11-13T06:05:13.540Z,8.2
2017-11-13T06:05:54.033Z,8.23
2017-11-13T06:06:34.553Z,8.19
2017-11-13T06:07:15.021Z,8.12
2017-11-13T06:07:55.516Z,8.2
2017-11-13T06:08:36.007Z,8.2
2017-11-13T06:09:16.495Z,8.23
2017-11-13T06:09:56.978Z,8.2
2017-11-13T06:10:37.469Z,8.18
2017-11-13T06:11:17.963Z,8.18
2017-11-13T06:11:58.447Z,8.23
2017-11-13T06:12:38.927Z,8.12
2017-11-13T06:13:19.422Z,8.16
2017-11-13T06:13:59.903Z,8.12
2017-11-13T06:14:40.389Z,8.26
2017-11-13T06:15:21.519Z,8.28
2017-11-13T06:16:02.000Z,8.25
2017-11-13T06:16:42.492Z,8.2
2017-11-13T06:17:22.992Z,8.3
2017-11-13T06:18:03.477Z,8.19
2017-11-13T06:18:43.970Z,8.22
2017-11-13T06:19:24.465Z,8.33
2017-11-13T06:20:04.956Z,8.26
2017-11-13T06:20:45.438Z,8.34
2017-11-13T06:21:25.926Z,8.22
2017-11-13T06:22:06.418Z,8.33
2017-11-13T06:22:46.898Z,8.2
2017-11-13T06:23:27.392Z,8.23
2017-11-13T06:24:07.884Z,8.19
2017-11-13T06:24:48.366Z,8.25
2017-11-13T06:25:28.851Z,8.26
2017-11-13T06:26:09.332Z,8.19
2017-11-13T06:26:49.824Z,8.23
2017-11-13T06:27:30.303Z,8.15
2017-11-13T06:28:10.795Z,8.16
2017-11-13T06:28:51.292Z,8.29
2017-11-13T06:29:31.778Z,8.34
2017-11-13T06:30:12.261Z,8.19
2017-11-13T06:30:52.754Z,8.18
2017-11-13T06:31:33.255Z,8.18
2017-11-13T06:32:13.752Z,8.25
2017-11-13T06:32:54.233Z,8.22
2017-11-13T06:33:34.749Z,8.23
2017-11-13T06:34:15.231Z,8.26
2017-11-13T06:34:55.738Z,8.33
2017-11-13T06:35:36.251Z,8.23
2017-11-13T06:36:16.767Z,8.26
2017-11-13T06:36:57.317Z,8.34
2017-11-13T06:37:37.827Z,8.23
2017-11-13T06:38:18.353Z,8.26
2017-11-13T06:38:58.894Z,8.28
2017-11-13T06:39:39.428Z,8.25
2017-11-13T06:40:19.947Z,8.22
2017-11-13T06:41:00.476Z,8.28
2017-11-13T06:41:40.984Z,8.23
2017-11-13T06:42:21.494Z,8.2
2017-11-13T06:43:02.005Z,8.18
2017-11-13T06:43:42.504Z,8.2
2017-11-13T06:44:23.039Z,8.2
2017-11-13T06:45:03.535Z,8.12
2017-11-13T06:45:44.062Z,8.19
2017-11-13T06:46:24.595Z,8.28
2017-11-13T06:47:05.104Z,8.19
2017-11-13T06:47:45.600Z,8.25
2017-11-13T06:48:26.180Z,8.28
2017-11-13T06:49:06.671Z,8.26
2017-11-13T06:49:47.207Z,8.22
2017-11-13T06:50:27.752Z,8.19
2017-11-13T06:51:08.238Z,8.19
2017-11-13T06:51:48.734Z,8.2
2017-11-13T06:52:29.219Z,8.33
2017-11-13T06:53:09.706Z,8.19
2017-11-13T06:53:50.210Z,8.16
2017-11-13T06:54:30.694Z,8.2
2017-11-13T06:55:11.180Z,8.15
2017-11-13T06:55:51.701Z,8.11
2017-11-13T06:56:32.196Z,8.16
2017-11-13T06:57:12.702Z,8.16
2017-11-13T06:57:53.176Z,8.15
2017-11-13T06:58:33.649Z,8.2
2017-11-13T06:59:14.165Z,8.16
2017-11-13T06:59:54.656Z,8.2
2017-11-13T07:00:35.149Z,8.2
2017-11-13T07:01:15.641Z,8.22
2017-11-13T07:01:56.112Z,8.16
2017-11-13T07:02:36.597Z,8.18
2017-11-13T07:03:17.088Z,8.2
2017-11-13T07:03:57.584Z,8.18
2017-11-13T07:04:38.067Z,8.15
2017-11-13T07:05:18.565Z,8.16
2017-11-13T07:05:59.055Z,8.36
2017-11-13T07:06:39.533Z,8.33
2017-11-13T07:07:20.024Z,8.19
2017-11-13T07:08:00.519Z,8.16
2017-11-13T07:08:41.022Z,8.16
2017-11-13T07:09:21.515Z,8.38
2017-11-13T07:10:02.015Z,8.11
2017-11-13T07:10:42.496Z,8.3
2017-11-13T07:11:22.970Z,8.2
2017-11-13T07:12:03.494Z,8.28
2017-11-13T07:12:43.979Z,8.38
2017-11-13T07:13:24.471Z,8.34
2017-11-13T07:14:04.973Z,8.36
2017-11-13T07:14:45.450Z,8.43
2017-11-13T07:15:25.950Z,8.41
2017-11-13T07:16:06.454Z,8.45
2017-11-13T07:16:46.972Z,8.38
2017-11-13T07:17:27.468Z,8.48
2017-11-13T07:18:07.960Z,8.58
2017-11-13T07:18:48.477Z,8.52
2017-11-13T07:19:28.971Z,8.59
2017-11-13T07:20:09.444Z,8.56
2017-11-13T07:20:49.932Z,8.52
2017-11-13T07:21:30.441Z,8.58
2017-11-13T07:22:10.938Z,8.52
2017-11-13T07:22:51.438Z,8.59
2017-11-13T07:23:31.926Z,8.58
2017-11-13T07:24:12.417Z,8.52
2017-11-13T07:24:52.894Z,8.52
2017-11-13T07:25:33.379Z,8.56
2017-11-13T07:26:13.878Z,8.63
2017-11-13T07:26:54.367Z,8.68
2017-11-13T07:27:34.880Z,8.65
2017-11-13T07:28:15.372Z,8.66
2017-11-13T07:28:55.872Z,8.7
2017-11-13T07:29:36.355Z,8.73
2017-11-13T07:30:16.850Z,8.71
2017-11-13T07:30:57.440Z,8.7
2017-11-13T07:31:37.971Z,8.71
2017-11-13T07:32:18.462Z,8.65
2017-11-13T07:32:58.952Z,8.47
2017-11-13T07:33:39.428Z,8.65
2017-11-13T07:34:19.914Z,8.73
2017-11-13T07:35:00.404Z,8.73
2017-11-13T07:35:40.883Z,8.7
2017-11-13T07:36:21.418Z,8.66
2017-11-13T07:37:01.931Z,8.68
2017-11-13T07:37:42.408Z,8.66
2017-11-13T07:38:22.908Z,8.7
2017-11-13T07:39:03.378Z,8.77
2017-11-13T07:39:43.877Z,8.76
2017-11-13T07:40:24.380Z,8.62
2017-11-13T07:41:04.874Z,8.79
2017-11-13T07:41:45.358Z,8.71
2017-11-13T07:42:25.888Z,8.61
2017-11-13T07:43:06.381Z,8.79
2017-11-13T07:43:46.873Z,8.77
2017-11-13T07:44:27.408Z,8.77
2017-11-13T07:45:07.943Z,8.73
2017-11-13T07:45:48.522Z,8.68
2017-11-13T07:46:29.080Z,8.76
2017-11-13T07:47:09.571Z,8.8
2017-11-13T07:47:50.062Z,8.8
2017-11-13T07:48:30.529Z,8.81
2017-11-13T07:49:11.023Z,8.84
2017-11-13T07:49:51.516Z,8.81
2017-11-13T07:50:32.016Z,8.83
2017-11-13T07:51:12.495Z,8.77
2017-11-13T07:51:52.991Z,8.83
2017-11-13T07:52:33.475Z,8.86
2017-11-13T07:53:13.995Z,8.89
2017-11-13T07:53:54.483Z,8.79
2017-11-13T07:54:34.972Z,8.71
2017-11-13T07:55:15.469Z,8.77
2017-11-13T07:55:55.966Z,8.77
2017-11-13T07:56:36.458Z,8.79
2017-11-13T07:57:17.022Z,8.87
2017-11-13T07:57:57.580Z,8.74
2017-11-13T07:58:38.071Z,8.79
2017-11-13T07:59:18.576Z,8.63
2017-11-13T07:59:59.066Z,8.71
2017-11-13T08:00:39.543Z,8.66
2017-11-13T08:01:20.033Z,8.62
2017-11-13T08:02:00.559Z,8.66
2017-11-13T08:02:41.052Z,8.71
2017-11-13T08:03:21.538Z,8.74
2017-11-13T08:04:02.045Z,8.77
2017-11-13T08:04:42.577Z,8.65
2017-11-13T08:05:23.091Z,8.68
2017-11-13T08:06:03.581Z,8.65
2017-11-13T08:06:44.062Z,8.61
2017-11-13T08:07:24.552Z,8.61
2017-11-13T08:08:05.034Z,8.81
2017-11-13T08:08:45.499Z,8.71
2017-11-13T08:09:25.983Z,8.71
2017-11-13T08:10:06.489Z,8.76
2017-11-13T08:10:47.009Z,8.84
2017-11-13T08:12:39.553Z,8.79
2017-11-13T08:13:20.050Z,8.83
2017-11-13T08:14:00.557Z,8.95
2017-11-13T08:14:41.071Z,8.84
2017-11-13T08:15:21.632Z,8.83
2017-11-13T08:16:02.130Z,8.76
2017-11-13T08:16:42.628Z,8.86
2017-11-13T08:17:23.124Z,8.91
2017-11-13T08:18:03.629Z,8.84
2017-11-13T08:18:44.115Z,8.84
2017-11-13T08:19:24.651Z,8.91
2017-11-13T08:20:05.134Z,8.87
2017-11-13T08:20:45.642Z,8.83
2017-11-13T08:21:26.150Z,8.94
2017-11-13T08:22:06.671Z,8.89
2017-11-13T08:22:47.166Z,8.8
2017-11-13T08:23:27.657Z,8.95
2017-11-13T08:24:08.146Z,9.01
2017-11-13T08:24:48.623Z,9.01
2017-11-13T08:25:29.147Z,8.98
2017-11-13T08:26:09.592Z,8.94
2017-11-13T08:26:50.077Z,9.05
2017-11-13T08:27:30.573Z,8.98
2017-11-13T08:28:11.074Z,8.99
2017-11-13T08:28:51.552Z,8.98
2017-11-13T08:29:32.056Z,8.99
2017-11-13T08:30:12.550Z,9.05
2017-11-13T08:30:53.115Z,9.1
2017-11-13T08:31:33.629Z,8.94
2017-11-13T08:32:14.096Z,9.04
2017-11-13T08:32:54.607Z,9.1
2017-11-13T08:33:35.082Z,9.23
2017-11-13T08:34:15.573Z,9.26
2017-11-13T08:34:56.083Z,9.23
2017-11-13T08:35:36.583Z,9.24
2017-11-13T08:36:17.122Z,9.26
2017-11-13T08:36:57.607Z,9.21
2017-11-13T08:37:38.122Z,9.28
2017-11-13T08:38:18.616Z,9.2
2017-11-13T08:38:59.395Z,9.26
2017-11-13T08:39:40.057Z,9.31
2017-11-13T08:40:20.536Z,9.42
2017-11-13T08:41:01.032Z,9.4
2017-11-13T08:41:41.527Z,9.4
2017-11-13T08:42:22.021Z,9.42
2017-11-13T08:43:02.510Z,9.48
2017-11-13T08:43:43.045Z,9.69
2017-11-13T08:44:23.532Z,9.61
2017-11-13T08:45:04.025Z,9.51
2017-11-13T08:45:44.517Z,9.58
2017-11-13T08:46:25.074Z,9.51
2017-11-13T08:47:05.572Z,9.54
2017-11-13T08:47:46.061Z,9.48
2017-11-13T08:48:26.521Z,9.61
2017-11-13T08:49:07.005Z,9.56
2017-11-13T08:49:47.492Z,9.57
2017-11-13T08:50:27.999Z,9.58
2017-11-13T08:51:08.528Z,9.72
2017-11-13T08:51:49.014Z,9.72
2017-11-13T08:52:29.538Z,9.65
2017-11-13T08:53:10.790Z,9.65
2017-11-13T08:53:51.361Z,9.64
2017-11-13T08:54:31.904Z,9.56
2017-11-13T08:55:12.423Z,9.64
2017-11-13T08:55:53.022Z,9.6
2017-11-13T08:56:33.638Z,9.47
2017-11-13T08:57:14.192Z,9.56
2017-11-13T08:57:54.786Z,9.47
2017-11-13T08:58:36.173Z,9.32
2017-11-13T08:59:16.771Z,9.53
2017-11-13T08:59:57.333Z,9.54
2017-11-13T09:00:37.922Z,9.43
2017-11-13T09:01:18.507Z,9.42
2017-11-13T09:01:59.103Z,9.32
2017-11-13T09:02:39.655Z,9.57
2017-11-13T09:03:20.217Z,9.43
2017-11-13T09:04:00.750Z,9.6